Crowley, Louisiana
Current Conditions -  °F | °C
As of 10:15 PM on Sunday 23 Nov 2014 (Local Time) from K3R7 Reporting Station
Haze Haze  
Wind Chill: 64°   Ceiling: 500
Heat Index: 64°   Visibility: 5mi
Dew Point: 64°   Wind: 6mph
Humidity: 99%   Direction: 200°SSW
Pressure: 29.7"   Gusts: NA
Location:  30.21°N, 92.37°W
Report Text: K3R7 240415Z AUTO 20005KT 5SM BR BKN005 BKN009 18/18 A2970 RMK AO2 T01800179
Loading
Personal Weather Stations






























Interactive Weather Map New forecast layout! Learn more

10-Day Weather Forecast

Advertisements
Track Severe Weather on mobile